sensor_id;sensor_type;location;lat;lon;timestamp;temperature;humidity
27741;DHT22;15134;48.768;9.184;2024-02-14T00:00:11;6.10;99.90
27741;DHT22;15134;48.768;9.184;2024-02-14T00:02:45;6.10;99.90
27741;DHT22;15134;48.768;9.184;2024-02-14T00:05:14;6.10;99.90
27741;DHT22;15134;48.768;9.184;2024-02-14T00:07:40;6.10;99.90
27741;DHT22;15134;48.768;9.184;2024-02-14T00:10:06;6.10;99.90
27741;DHT22;15134;48.768;9.184;2024-02-14T00:12:33;6.10;99.90
27741;DHT22;15134;48.768;9.184;2024-02-14T00:14:59;6.10;99.90
27741;DHT22;15134;48.768;9.184;2024-02-14T00:17:24;6.20;99.90
27741;DHT22;15134;48.768;9.184;2024-02-14T00:19:50;6.20;99.90
27741;DHT22;15134;48.768;9.184;2024-02-14T00:22:16;6.20;99.90
27741;DHT22;15134;48.768;9.184;2024-02-14T00:24:42;6.20;99.90
27741;DHT22;15134;48.768;9.184;2024-02-14T00:27:08;6.20;99.90
27741;DHT22;15134;48.768;9.184;2024-02-14T00:29:33;6.10;99.90
27741;DHT22;15134;48.768;9.184;2024-02-14T00:32:00;6.10;99.90
27741;DHT22;15134;48.768;9.184;2024-02-14T00:34:25;6.10;99.90
27741;DHT22;15134;48.768;9.184;2024-02-14T00:36:51;6.10;99.90
27741;DHT22;15134;48.768;9.184;2024-02-14T00:39:17;6.10;99.90
27741;DHT22;15134;48.768;9.184;2024-02-14T00:41:42;6.10;99.90
27741;DHT22;15134;48.768;9.184;2024-02-14T00:44:08;6.20;99.90
27741;DHT22;15134;48.768;9.184;2024-02-14T00:46:33;6.20;99.90
27741;DHT22;15134;48.768;9.184;2024-02-14T00:48:59;6.30;99.90
27741;DHT22;15134;48.768;9.184;2024-02-14T00:51:25;6.40;99.90
27741;DHT22;15134;48.768;9.184;2024-02-14T00:53:51;6.50;99.90
27741;DHT22;15134;48.768;9.184;2024-02-14T00:56:17;6.50;99.90
27741;DHT22;15134;48.768;9.184;2024-02-14T00:58:43;6.60;99.90
27741;DHT22;15134;48.768;9.184;2024-02-14T01:01:09;6.60;99.90
27741;DHT22;15134;48.768;9.184;2024-02-14T01:03:35;6.60;99.90
27741;DHT22;15134;48.768;9.184;2024-02-14T01:06:01;6.70;99.90
27741;DHT22;15134;48.768;9.184;2024-02-14T01:08:27;6.70;99.90
27741;DHT22;15134;48.768;9.184;2024-02-14T01:10:55;6.70;99.90
27741;DHT22;15134;48.768;9.184;2024-02-14T01:13:21;6.80;99.90
27741;DHT22;15134;48.768;9.184;2024-02-14T01:15:47;6.80;99.90
27741;DHT22;15134;48.768;9.184;2024-02-14T01:18:13;6.90;99.90
27741;DHT22;15134;48.768;9.184;2024-02-14T01:20:39;7.00;99.90
27741;DHT22;15134;48.768;9.184;2024-02-14T01:23:04;7.00;99.90
27741;DHT22;15134;48.768;9.184;2024-02-14T01:25:30;7.00;99.90
27741;DHT22;15134;48.768;9.184;2024-02-14T01:27:56;7.00;99.90
27741;DHT22;15134;48.768;9.184;2024-02-14T01:30:21;7.00;99.90
27741;DHT22;15134;48.768;9.184;2024-02-14T01:32:47;7.00;99.90
27741;DHT22;15134;48.768;9.184;2024-02-14T01:35:12;7.10;99.90
27741;DHT22;15134;48.768;9.184;2024-02-14T01:37:38;7.10;99.90
27741;DHT22;15134;48.768;9.184;2024-02-14T01:40:05;7.20;99.90
27741;DHT22;15134;48.768;9.184;2024-02-14T01:42:32;7.20;99.90
27741;DHT22;15134;48.768;9.184;2024-02-14T01:44:58;7.20;99.90
27741;DHT22;15134;48.768;9.184;2024-02-14T01:47:24;7.20;99.90
27741;DHT22;15134;48.768;9.184;2024-02-14T01:49:50;7.20;99.90
27741;DHT22;15134;48.768;9.184;2024-02-14T01:52:15;7.20;99.90
27741;DHT22;15134;48.768;9.184;2024-02-14T01:54:41;7.30;99.90
27741;DHT22;15134;48.768;9.184;2024-02-14T01:57:07;7.30;99.90
27741;DHT22;15134;48.768;9.184;2024-02-14T01:59:33;7.30;99.90
27741;DHT22;15134;48.768;9.184;2024-02-14T02:02:02;7.20;99.90
27741;DHT22;15134;48.768;9.184;2024-02-14T02:04:28;7.20;99.90
27741;DHT22;15134;48.768;9.184;2024-02-14T02:06:53;7.20;99.90
27741;DHT22;15134;48.768;9.184;2024-02-14T02:09:22;7.20;99.90
27741;DHT22;15134;48.768;9.184;2024-02-14T02:11:48;7.20;99.90
27741;DHT22;15134;48.768;9.184;2024-02-14T02:14:14;7.10;99.90
27741;DHT22;15134;48.768;9.184;2024-02-14T02:16:40;7.10;99.90
27741;DHT22;15134;48.768;9.184;2024-02-14T02:19:05;7.20;99.90
27741;DHT22;15134;48.768;9.184;2024-02-14T02:21:34;7.20;99.90
27741;DHT22;15134;48.768;9.184;2024-02-14T02:24:00;7.20;99.90
27741;DHT22;15134;48.768;9.184;2024-02-14T02:26:26;7.20;99.90
27741;DHT22;15134;48.768;9.184;2024-02-14T02:28:52;7.20;99.90
27741;DHT22;15134;48.768;9.184;2024-02-14T02:31:18;7.20;99.90
27741;DHT22;15134;48.768;9.184;2024-02-14T02:33:43;7.20;99.90
27741;DHT22;15134;48.768;9.184;2024-02-14T02:36:09;7.00;99.90
27741;DHT22;15134;48.768;9.184;2024-02-14T02:38:35;6.90;99.90
27741;DHT22;15134;48.768;9.184;2024-02-14T02:41:02;7.00;99.90
27741;DHT22;15134;48.768;9.184;2024-02-14T02:43:28;7.10;99.90
27741;DHT22;15134;48.768;9.184;2024-02-14T02:45:54;7.10;99.90
27741;DHT22;15134;48.768;9.184;2024-02-14T02:48:20;7.00;99.90
27741;DHT22;15134;48.768;9.184;2024-02-14T02:50:49;7.00;99.90
27741;DHT22;15134;48.768;9.184;2024-02-14T02:53:15;7.00;99.90
27741;DHT22;15134;48.768;9.184;2024-02-14T02:55:41;6.90;99.90
27741;DHT22;15134;48.768;9.184;2024-02-14T02:58:07;6.90;99.90
27741;DHT22;15134;48.768;9.184;2024-02-14T03:00:33;6.90;99.90
27741;DHT22;15134;48.768;9.184;2024-02-14T03:02:58;6.90;99.90
27741;DHT22;15134;48.768;9.184;2024-02-14T03:05:24;7.00;99.90
27741;DHT22;15134;48.768;9.184;2024-02-14T03:07:50;7.00;99.90
27741;DHT22;15134;48.768;9.184;2024-02-14T03:10:16;7.00;99.90
27741;DHT22;15134;48.768;9.184;2024-02-14T03:12:47;7.00;99.90
27741;DHT22;15134;48.768;9.184;2024-02-14T03:15:13;7.00;99.90
27741;DHT22;15134;48.768;9.184;2024-02-14T03:17:39;7.00;99.90
27741;DHT22;15134;48.768;9.184;2024-02-14T03:20:04;7.10;99.90
27741;DHT22;15134;48.768;9.184;2024-02-14T03:22:36;7.00;99.90
27741;DHT22;15134;48.768;9.184;2024-02-14T03:25:02;7.00;99.90
27741;DHT22;15134;48.768;9.184;2024-02-14T03:27:28;7.00;99.90
27741;DHT22;15134;48.768;9.184;2024-02-14T03:29:56;7.10;99.90
27741;DHT22;15134;48.768;9.184;2024-02-14T03:32:23;7.10;99.90
27741;DHT22;15134;48.768;9.184;2024-02-14T03:34:49;7.10;99.90
27741;DHT22;15134;48.768;9.184;2024-02-14T03:37:15;7.10;99.90
27741;DHT22;15134;48.768;9.184;2024-02-14T03:39:40;7.10;99.90
27741;DHT22;15134;48.768;9.184;2024-02-14T03:42:06;7.10;99.90
27741;DHT22;15134;48.768;9.184;2024-02-14T03:44:33;7.10;99.90
27741;DHT22;15134;48.768;9.184;2024-02-14T03:46:58;7.20;99.90
27741;DHT22;15134;48.768;9.184;2024-02-14T03:49:25;7.10;99.90
27741;DHT22;15134;48.768;9.184;2024-02-14T03:51:51;7.10;99.90
27741;DHT22;15134;48.768;9.184;2024-02-14T03:54:20;7.10;99.90
27741;DHT22;15134;48.768;9.184;2024-02-14T03:56:45;7.00;99.90
27741;DHT22;15134;48.768;9.184;2024-02-14T03:59:11;7.10;99.90
27741;DHT22;15134;48.768;9.184;2024-02-14T04:01:37;7.10;99.90
27741;DHT22;15134;48.768;9.184;2024-02-14T04:04:02;7.10;99.90
27741;DHT22;15134;48.768;9.184;2024-02-14T04:06:28;7.10;99.90
27741;DHT22;15134;48.768;9.184;2024-02-14T04:08:57;7.10;99.90
27741;DHT22;15134;48.768;9.184;2024-02-14T04:11:22;7.20;99.90
27741;DHT22;15134;48.768;9.184;2024-02-14T04:13:48;7.30;99.90
27741;DHT22;15134;48.768;9.184;2024-02-14T04:16:14;7.30;99.90
27741;DHT22;15134;48.768;9.184;2024-02-14T04:18:39;7.40;99.90
27741;DHT22;15134;48.768;9.184;2024-02-14T04:21:07;7.40;99.90
27741;DHT22;15134;48.768;9.184;2024-02-14T04:23:33;7.50;99.90
27741;DHT22;15134;48.768;9.184;2024-02-14T04:25:58;7.50;99.90
27741;DHT22;15134;48.768;9.184;2024-02-14T04:28:24;7.50;99.90
27741;DHT22;15134;48.768;9.184;2024-02-14T04:30:54;7.50;99.90
27741;DHT22;15134;48.768;9.184;2024-02-14T04:33:20;7.50;99.90
27741;DHT22;15134;48.768;9.184;2024-02-14T04:35:47;7.50;99.90
27741;DHT22;15134;48.768;9.184;2024-02-14T04:38:12;7.50;99.90
27741;DHT22;15134;48.768;9.184;2024-02-14T04:40:38;7.50;99.90
27741;DHT22;15134;48.768;9.184;2024-02-14T04:43:04;7.50;99.90
27741;DHT22;15134;48.768;9.184;2024-02-14T04:45:30;7.50;99.90
27741;DHT22;15134;48.768;9.184;2024-02-14T04:47:55;7.50;99.90
27741;DHT22;15134;48.768;9.184;2024-02-14T04:50:21;7.50;99.90
27741;DHT22;15134;48.768;9.184;2024-02-14T04:52:47;7.50;99.90
27741;DHT22;15134;48.768;9.184;2024-02-14T04:55:12;7.40;99.90
27741;DHT22;15134;48.768;9.184;2024-02-14T04:57:38;7.40;99.90
27741;DHT22;15134;48.768;9.184;2024-02-14T05:00:04;7.50;99.90
27741;DHT22;15134;48.768;9.184;2024-02-14T05:02:30;7.50;99.90
27741;DHT22;15134;48.768;9.184;2024-02-14T05:04:56;7.40;99.90
27741;DHT22;15134;48.768;9.184;2024-02-14T05:07:22;7.40;99.90
27741;DHT22;15134;48.768;9.184;2024-02-14T05:09:47;7.40;99.90
27741;DHT22;15134;48.768;9.184;2024-02-14T05:12:17;7.40;99.90
27741;DHT22;15134;48.768;9.184;2024-02-14T05:14:42;7.40;99.90
27741;DHT22;15134;48.768;9.184;2024-02-14T05:17:09;7.40;99.90
27741;DHT22;15134;48.768;9.184;2024-02-14T05:19:35;7.50;99.90
27741;DHT22;15134;48.768;9.184;2024-02-14T05:22:00;7.50;99.90
27741;DHT22;15134;48.768;9.184;2024-02-14T05:24:26;7.50;99.90
27741;DHT22;15134;48.768;9.184;2024-02-14T05:26:55;7.50;99.90
27741;DHT22;15134;48.768;9.184;2024-02-14T05:29:21;7.50;99.90
27741;DHT22;15134;48.768;9.184;2024-02-14T05:31:47;7.50;99.90
27741;DHT22;15134;48.768;9.184;2024-02-14T05:34:14;7.60;99.90
27741;DHT22;15134;48.768;9.184;2024-02-14T05:36:39;7.60;99.90
27741;DHT22;15134;48.768;9.184;2024-02-14T05:39:05;7.60;99.90
27741;DHT22;15134;48.768;9.184;2024-02-14T05:41:34;7.60;99.90
27741;DHT22;15134;48.768;9.184;2024-02-14T05:43:59;7.70;99.90
27741;DHT22;15134;48.768;9.184;2024-02-14T05:46:25;7.60;99.90
27741;DHT22;15134;48.768;9.184;2024-02-14T05:48:51;7.60;99.90
27741;DHT22;15134;48.768;9.184;2024-02-14T05:51:23;7.70;99.90
27741;DHT22;15134;48.768;9.184;2024-02-14T05:53:48;7.70;99.90
27741;DHT22;15134;48.768;9.184;2024-02-14T05:56:14;7.70;99.90
27741;DHT22;15134;48.768;9.184;2024-02-14T05:58:40;7.70;99.90
27741;DHT22;15134;48.768;9.184;2024-02-14T06:01:05;7.70;99.90
27741;DHT22;15134;48.768;9.184;2024-02-14T06:03:31;7.60;99.90
27741;DHT22;15134;48.768;9.184;2024-02-14T06:05:57;7.60;99.90
27741;DHT22;15134;48.768;9.184;2024-02-14T06:08:23;7.60;99.90
27741;DHT22;15134;48.768;9.184;2024-02-14T06:10:49;7.60;99.90
27741;DHT22;15134;48.768;9.184;2024-02-14T06:13:15;7.50;99.90
27741;DHT22;15134;48.768;9.184;2024-02-14T06:15:41;7.50;99.90
27741;DHT22;15134;48.768;9.184;2024-02-14T06:18:06;7.50;99.90
27741;DHT22;15134;48.768;9.184;2024-02-14T06:20:32;7.50;99.90
27741;DHT22;15134;48.768;9.184;2024-02-14T06:22:58;7.50;99.90
27741;DHT22;15134;48.768;9.184;2024-02-14T06:25:23;7.50;99.90
27741;DHT22;15134;48.768;9.184;2024-02-14T06:27:49;7.50;99.90
27741;DHT22;15134;48.768;9.184;2024-02-14T06:30:15;7.50;99.90
27741;DHT22;15134;48.768;9.184;2024-02-14T06:32:42;7.50;99.90
27741;DHT22;15134;48.768;9.184;2024-02-14T06:35:08;7.50;99.90
27741;DHT22;15134;48.768;9.184;2024-02-14T06:37:33;7.40;99.90
27741;DHT22;15134;48.768;9.184;2024-02-14T06:39:59;7.40;99.90
27741;DHT22;15134;48.768;9.184;2024-02-14T06:42:24;7.50;99.90
27741;DHT22;15134;48.768;9.184;2024-02-14T06:44:50;7.50;99.90
27741;DHT22;15134;48.768;9.184;2024-02-14T06:47:16;7.50;99.90
27741;DHT22;15134;48.768;9.184;2024-02-14T06:49:41;7.60;99.90
27741;DHT22;15134;48.768;9.184;2024-02-14T06:52:07;7.60;99.90
27741;DHT22;15134;48.768;9.184;2024-02-14T06:54:34;7.70;99.90
27741;DHT22;15134;48.768;9.184;2024-02-14T06:57:00;7.70;99.90
27741;DHT22;15134;48.768;9.184;2024-02-14T06:59:26;7.70;99.90
27741;DHT22;15134;48.768;9.184;2024-02-14T07:01:55;7.70;99.90
27741;DHT22;15134;48.768;9.184;2024-02-14T07:04:21;7.80;99.90
27741;DHT22;15134;48.768;9.184;2024-02-14T07:06:51;7.90;99.90
27741;DHT22;15134;48.768;9.184;2024-02-14T07:09:17;7.90;99.90
27741;DHT22;15134;48.768;9.184;2024-02-14T07:11:43;8.00;99.90
27741;DHT22;15134;48.768;9.184;2024-02-14T07:14:08;8.00;99.90
27741;DHT22;15134;48.768;9.184;2024-02-14T07:16:34;8.00;99.90
27741;DHT22;15134;48.768;9.184;2024-02-14T07:18:59;8.00;99.90
27741;DHT22;15134;48.768;9.184;2024-02-14T07:21:25;8.00;99.90
27741;DHT22;15134;48.768;9.184;2024-02-14T07:25:05;8.00;99.90
27741;DHT22;15134;48.768;9.184;2024-02-14T07:27:33;8.10;99.90
27741;DHT22;15134;48.768;9.184;2024-02-14T07:30:00;8.10;99.90
27741;DHT22;15134;48.768;9.184;2024-02-14T07:32:26;8.10;99.90
27741;DHT22;15134;48.768;9.184;2024-02-14T07:34:53;8.10;99.90
27741;DHT22;15134;48.768;9.184;2024-02-14T07:37:18;8.10;99.90
27741;DHT22;15134;48.768;9.184;2024-02-14T07:39:46;8.20;99.90
27741;DHT22;15134;48.768;9.184;2024-02-14T07:42:13;8.20;99.90
27741;DHT22;15134;48.768;9.184;2024-02-14T07:44:39;8.20;99.90
27741;DHT22;15134;48.768;9.184;2024-02-14T07:47:05;8.30;99.90
27741;DHT22;15134;48.768;9.184;2024-02-14T07:49:30;8.40;99.90
27741;DHT22;15134;48.768;9.184;2024-02-14T07:51:56;8.50;99.90
27741;DHT22;15134;48.768;9.184;2024-02-14T07:54:22;8.60;99.90
27741;DHT22;15134;48.768;9.184;2024-02-14T07:56:47;8.60;99.90
27741;DHT22;15134;48.768;9.184;2024-02-14T07:59:13;8.70;99.90
27741;DHT22;15134;48.768;9.184;2024-02-14T08:01:39;8.80;99.90
27741;DHT22;15134;48.768;9.184;2024-02-14T08:04:04;8.80;99.90
27741;DHT22;15134;48.768;9.184;2024-02-14T08:06:30;8.90;99.90
27741;DHT22;15134;48.768;9.184;2024-02-14T08:08:56;9.00;99.90
27741;DHT22;15134;48.768;9.184;2024-02-14T08:11:27;9.00;99.90
27741;DHT22;15134;48.768;9.184;2024-02-14T08:13:53;9.00;99.90
27741;DHT22;15134;48.768;9.184;2024-02-14T08:16:18;9.00;99.90
27741;DHT22;15134;48.768;9.184;2024-02-14T08:18:44;9.10;99.90
27741;DHT22;15134;48.768;9.184;2024-02-14T08:21:10;9.10;99.90
27741;DHT22;15134;48.768;9.184;2024-02-14T08:23:37;9.10;99.90
27741;DHT22;15134;48.768;9.184;2024-02-14T08:26:05;9.10;99.90
27741;DHT22;15134;48.768;9.184;2024-02-14T08:28:36;9.10;99.90
27741;DHT22;15134;48.768;9.184;2024-02-14T08:31:03;9.10;99.90
27741;DHT22;15134;48.768;9.184;2024-02-14T08:33:28;9.10;99.90
27741;DHT22;15134;48.768;9.184;2024-02-14T08:35:54;9.10;99.90
27741;DHT22;15134;48.768;9.184;2024-02-14T08:38:22;9.20;99.90
27741;DHT22;15134;48.768;9.184;2024-02-14T08:40:48;9.20;99.90
27741;DHT22;15134;48.768;9.184;2024-02-14T08:43:14;9.30;99.90
27741;DHT22;15134;48.768;9.184;2024-02-14T08:45:40;9.50;99.90
27741;DHT22;15134;48.768;9.184;2024-02-14T08:48:07;9.60;99.90
27741;DHT22;15134;48.768;9.184;2024-02-14T08:50:32;9.80;99.90
27741;DHT22;15134;48.768;9.184;2024-02-14T08:52:58;9.90;99.90
27741;DHT22;15134;48.768;9.184;2024-02-14T08:55:24;10.00;99.90
27741;DHT22;15134;48.768;9.184;2024-02-14T08:57:50;10.10;99.90
27741;DHT22;15134;48.768;9.184;2024-02-14T09:00:16;10.20;99.90
27741;DHT22;15134;48.768;9.184;2024-02-14T09:02:46;10.30;99.90
27741;DHT22;15134;48.768;9.184;2024-02-14T09:05:13;10.50;99.90
27741;DHT22;15134;48.768;9.184;2024-02-14T09:07:38;10.70;99.90
27741;DHT22;15134;48.768;9.184;2024-02-14T09:10:04;10.80;99.90
27741;DHT22;15134;48.768;9.184;2024-02-14T09:12:32;10.90;99.90
27741;DHT22;15134;48.768;9.184;2024-02-14T09:14:58;11.00;99.90
27741;DHT22;15134;48.768;9.184;2024-02-14T09:17:24;10.90;99.90
27741;DHT22;15134;48.768;9.184;2024-02-14T09:19:50;10.90;99.90
27741;DHT22;15134;48.768;9.184;2024-02-14T09:22:17;10.90;99.90
27741;DHT22;15134;48.768;9.184;2024-02-14T09:24:47;10.90;99.90
27741;DHT22;15134;48.768;9.184;2024-02-14T09:27:14;10.90;99.90
27741;DHT22;15134;48.768;9.184;2024-02-14T09:29:42;10.80;99.90
27741;DHT22;15134;48.768;9.184;2024-02-14T09:32:08;10.90;99.90
27741;DHT22;15134;48.768;9.184;2024-02-14T09:34:34;10.90;99.90
27741;DHT22;15134;48.768;9.184;2024-02-14T09:37:00;10.90;99.90
27741;DHT22;15134;48.768;9.184;2024-02-14T09:39:26;11.00;99.90
27741;DHT22;15134;48.768;9.184;2024-02-14T09:41:54;11.00;99.90
27741;DHT22;15134;48.768;9.184;2024-02-14T09:44:27;11.10;99.90
27741;DHT22;15134;48.768;9.184;2024-02-14T09:46:55;11.10;99.90
27741;DHT22;15134;48.768;9.184;2024-02-14T09:49:22;11.30;99.90
27741;DHT22;15134;48.768;9.184;2024-02-14T09:51:49;11.30;99.90
27741;DHT22;15134;48.768;9.184;2024-02-14T09:54:17;11.40;99.90
27741;DHT22;15134;48.768;9.184;2024-02-14T09:56:52;11.50;99.90
27741;DHT22;15134;48.768;9.184;2024-02-14T09:59:20;11.50;99.90
27741;DHT22;15134;48.768;9.184;2024-02-14T10:01:47;11.50;99.90
27741;DHT22;15134;48.768;9.184;2024-02-14T10:04:15;11.60;99.90
27741;DHT22;15134;48.768;9.184;2024-02-14T10:06:40;11.70;99.90
27741;DHT22;15134;48.768;9.184;2024-02-14T10:09:07;11.80;99.90
27741;DHT22;15134;48.768;9.184;2024-02-14T10:11:33;11.90;99.90
27741;DHT22;15134;48.768;9.184;2024-02-14T10:14:00;12.00;99.90
27741;DHT22;15134;48.768;9.184;2024-02-14T10:16:29;12.00;99.90
27741;DHT22;15134;48.768;9.184;2024-02-14T10:18:55;12.00;99.90
27741;DHT22;15134;48.768;9.184;2024-02-14T10:21:21;11.90;99.90
27741;DHT22;15134;48.768;9.184;2024-02-14T10:23:49;11.90;99.90
27741;DHT22;15134;48.768;9.184;2024-02-14T10:26:18;12.00;99.90
27741;DHT22;15134;48.768;9.184;2024-02-14T10:28:44;12.00;99.90
27741;DHT22;15134;48.768;9.184;2024-02-14T10:31:10;12.20;99.90
27741;DHT22;15134;48.768;9.184;2024-02-14T10:33:36;12.30;99.90
27741;DHT22;15134;48.768;9.184;2024-02-14T10:36:02;12.40;99.90
27741;DHT22;15134;48.768;9.184;2024-02-14T10:38:32;12.50;99.90
27741;DHT22;15134;48.768;9.184;2024-02-14T10:41:01;12.60;99.90
27741;DHT22;15134;48.768;9.184;2024-02-14T10:43:28;12.70;99.90
27741;DHT22;15134;48.768;9.184;2024-02-14T10:45:59;12.80;99.90
27741;DHT22;15134;48.768;9.184;2024-02-14T10:48:25;13.00;99.90
27741;DHT22;15134;48.768;9.184;2024-02-14T10:50:54;13.10;99.90
27741;DHT22;15134;48.768;9.184;2024-02-14T10:53:20;13.10;99.90
27741;DHT22;15134;48.768;9.184;2024-02-14T10:55:49;13.20;99.90
27741;DHT22;15134;48.768;9.184;2024-02-14T10:58:16;13.20;99.90
27741;DHT22;15134;48.768;9.184;2024-02-14T11:00:44;13.40;99.90
27741;DHT22;15134;48.768;9.184;2024-02-14T11:03:10;13.40;99.90
27741;DHT22;15134;48.768;9.184;2024-02-14T11:05:44;13.50;99.90
27741;DHT22;15134;48.768;9.184;2024-02-14T11:08:14;13.60;99.90
27741;DHT22;15134;48.768;9.184;2024-02-14T11:10:40;13.70;99.90
27741;DHT22;15134;48.768;9.184;2024-02-14T11:13:12;13.80;99.90
27741;DHT22;15134;48.768;9.184;2024-02-14T11:15:44;13.80;99.90
27741;DHT22;15134;48.768;9.184;2024-02-14T11:18:11;13.80;99.90
27741;DHT22;15134;48.768;9.184;2024-02-14T11:20:36;13.60;99.90
27741;DHT22;15134;48.768;9.184;2024-02-14T11:23:06;13.50;99.90
27741;DHT22;15134;48.768;9.184;2024-02-14T11:25:37;13.40;99.90
27741;DHT22;15134;48.768;9.184;2024-02-14T11:28:19;13.40;99.90
27741;DHT22;15134;48.768;9.184;2024-02-14T11:30:49;13.40;99.90
27741;DHT22;15134;48.768;9.184;2024-02-14T11:33:17;13.30;99.90
27741;DHT22;15134;48.768;9.184;2024-02-14T11:35:47;13.20;99.90
27741;DHT22;15134;48.768;9.184;2024-02-14T11:38:15;13.20;99.90
27741;DHT22;15134;48.768;9.184;2024-02-14T11:40:41;13.20;99.90
27741;DHT22;15134;48.768;9.184;2024-02-14T11:43:11;13.10;99.90
27741;DHT22;15134;48.768;9.184;2024-02-14T11:45:37;13.10;99.90
27741;DHT22;15134;48.768;9.184;2024-02-14T11:48:11;13.10;99.90
27741;DHT22;15134;48.768;9.184;2024-02-14T11:50:39;13.00;99.90
27741;DHT22;15134;48.768;9.184;2024-02-14T11:53:06;12.90;99.90
27741;DHT22;15134;48.768;9.184;2024-02-14T11:55:36;12.90;99.90
27741;DHT22;15134;48.768;9.184;2024-02-14T11:58:06;12.90;99.90
27741;DHT22;15134;48.768;9.184;2024-02-14T12:00:32;12.90;99.90
27741;DHT22;15134;48.768;9.184;2024-02-14T12:02:57;12.90;99.90
27741;DHT22;15134;48.768;9.184;2024-02-14T12:05:23;13.00;99.90
27741;DHT22;15134;48.768;9.184;2024-02-14T12:07:49;13.00;99.90
27741;DHT22;15134;48.768;9.184;2024-02-14T12:10:15;13.00;99.90
27741;DHT22;15134;48.768;9.184;2024-02-14T12:12:45;13.00;99.90
27741;DHT22;15134;48.768;9.184;2024-02-14T12:15:11;13.10;99.90
27741;DHT22;15134;48.768;9.184;2024-02-14T12:17:40;13.10;99.90
27741;DHT22;15134;48.768;9.184;2024-02-14T12:20:11;13.30;99.90
27741;DHT22;15134;48.768;9.184;2024-02-14T12:22:38;13.50;99.90
27741;DHT22;15134;48.768;9.184;2024-02-14T12:25:08;13.60;99.90
27741;DHT22;15134;48.768;9.184;2024-02-14T12:27:37;13.60;99.90
27741;DHT22;15134;48.768;9.184;2024-02-14T12:30:05;13.60;99.90
27741;DHT22;15134;48.768;9.184;2024-02-14T12:32:32;13.70;99.90
27741;DHT22;15134;48.768;9.184;2024-02-14T12:34:58;13.70;99.90
27741;DHT22;15134;48.768;9.184;2024-02-14T12:37:25;13.60;99.90
27741;DHT22;15134;48.768;9.184;2024-02-14T12:39:51;13.60;99.90
27741;DHT22;15134;48.768;9.184;2024-02-14T12:42:16;13.50;99.90
27741;DHT22;15134;48.768;9.184;2024-02-14T12:44:44;13.50;99.90
27741;DHT22;15134;48.768;9.184;2024-02-14T12:47:09;13.50;99.90
27741;DHT22;15134;48.768;9.184;2024-02-14T12:49:36;13.60;99.90
27741;DHT22;15134;48.768;9.184;2024-02-14T12:52:01;13.70;99.90
27741;DHT22;15134;48.768;9.184;2024-02-14T12:54:30;13.80;99.90
27741;DHT22;15134;48.768;9.184;2024-02-14T12:56:55;13.90;99.90
27741;DHT22;15134;48.768;9.184;2024-02-14T12:59:21;13.80;99.90
27741;DHT22;15134;48.768;9.184;2024-02-14T13:01:48;13.80;99.90
27741;DHT22;15134;48.768;9.184;2024-02-14T13:04:13;13.80;99.90
27741;DHT22;15134;48.768;9.184;2024-02-14T13:06:42;13.80;99.90
27741;DHT22;15134;48.768;9.184;2024-02-14T13:09:08;13.90;99.90
27741;DHT22;15134;48.768;9.184;2024-02-14T13:11:34;13.90;99.90
27741;DHT22;15134;48.768;9.184;2024-02-14T13:13:59;13.90;99.90
27741;DHT22;15134;48.768;9.184;2024-02-14T13:16:25;13.90;99.90
27741;DHT22;15134;48.768;9.184;2024-02-14T13:18:51;13.90;99.90
27741;DHT22;15134;48.768;9.184;2024-02-14T13:21:18;14.00;99.90
27741;DHT22;15134;48.768;9.184;2024-02-14T13:23:44;14.00;99.90
27741;DHT22;15134;48.768;9.184;2024-02-14T13:26:10;14.00;99.90
27741;DHT22;15134;48.768;9.184;2024-02-14T13:28:35;14.00;99.90
27741;DHT22;15134;48.768;9.184;2024-02-14T13:31:01;14.00;99.90
27741;DHT22;15134;48.768;9.184;2024-02-14T13:33:28;14.10;99.90
27741;DHT22;15134;48.768;9.184;2024-02-14T13:35:53;14.00;99.90
27741;DHT22;15134;48.768;9.184;2024-02-14T13:38:19;14.00;99.90
27741;DHT22;15134;48.768;9.184;2024-02-14T13:40:45;14.00;99.90
27741;DHT22;15134;48.768;9.184;2024-02-14T13:43:11;14.00;99.90
27741;DHT22;15134;48.768;9.184;2024-02-14T13:45:44;14.00;99.90
27741;DHT22;15134;48.768;9.184;2024-02-14T13:48:10;14.10;99.90
27741;DHT22;15134;48.768;9.184;2024-02-14T13:50:37;14.10;99.90
27741;DHT22;15134;48.768;9.184;2024-02-14T13:53:04;14.00;99.90
27741;DHT22;15134;48.768;9.184;2024-02-14T13:55:30;14.00;99.90
27741;DHT22;15134;48.768;9.184;2024-02-14T13:57:55;14.00;99.90
27741;DHT22;15134;48.768;9.184;2024-02-14T14:00:21;14.00;99.90
27741;DHT22;15134;48.768;9.184;2024-02-14T14:02:47;14.00;99.90
27741;DHT22;15134;48.768;9.184;2024-02-14T14:05:13;14.00;99.90
27741;DHT22;15134;48.768;9.184;2024-02-14T14:07:39;14.00;99.90
27741;DHT22;15134;48.768;9.184;2024-02-14T14:10:06;14.00;99.90
27741;DHT22;15134;48.768;9.184;2024-02-14T14:12:33;14.00;99.90
27741;DHT22;15134;48.768;9.184;2024-02-14T14:14:59;14.00;99.90
27741;DHT22;15134;48.768;9.184;2024-02-14T14:17:24;14.00;99.90
27741;DHT22;15134;48.768;9.184;2024-02-14T14:19:51;13.90;99.90
27741;DHT22;15134;48.768;9.184;2024-02-14T14:22:17;13.90;99.90
27741;DHT22;15134;48.768;9.184;2024-02-14T14:24:43;13.90;99.90
27741;DHT22;15134;48.768;9.184;2024-02-14T14:27:09;13.90;99.90
27741;DHT22;15134;48.768;9.184;2024-02-14T14:29:42;13.90;99.90
27741;DHT22;15134;48.768;9.184;2024-02-14T14:32:09;13.90;99.90
27741;DHT22;15134;48.768;9.184;2024-02-14T14:34:34;13.90;99.90
27741;DHT22;15134;48.768;9.184;2024-02-14T14:37:00;13.90;99.90
27741;DHT22;15134;48.768;9.184;2024-02-14T14:39:26;13.90;99.90
27741;DHT22;15134;48.768;9.184;2024-02-14T14:41:52;13.90;99.90
27741;DHT22;15134;48.768;9.184;2024-02-14T14:44:24;13.90;99.90
27741;DHT22;15134;48.768;9.184;2024-02-14T14:46:50;13.90;99.90
27741;DHT22;15134;48.768;9.184;2024-02-14T14:49:16;13.90;99.90
27741;DHT22;15134;48.768;9.184;2024-02-14T14:51:42;13.80;99.90
27741;DHT22;15134;48.768;9.184;2024-02-14T14:54:09;13.80;99.90
27741;DHT22;15134;48.768;9.184;2024-02-14T14:56:34;13.70;99.90
27741;DHT22;15134;48.768;9.184;2024-02-14T14:59:00;13.70;99.90
27741;DHT22;15134;48.768;9.184;2024-02-14T15:01:29;13.70;99.90
27741;DHT22;15134;48.768;9.184;2024-02-14T15:03:56;13.70;99.90
27741;DHT22;15134;48.768;9.184;2024-02-14T15:06:22;13.70;99.90
27741;DHT22;15134;48.768;9.184;2024-02-14T15:08:47;13.70;99.90
27741;DHT22;15134;48.768;9.184;2024-02-14T15:11:13;13.70;99.90
27741;DHT22;15134;48.768;9.184;2024-02-14T15:13:42;13.70;99.90
27741;DHT22;15134;48.768;9.184;2024-02-14T15:16:10;13.60;99.90
27741;DHT22;15134;48.768;9.184;2024-02-14T15:18:35;13.70;99.90
27741;DHT22;15134;48.768;9.184;2024-02-14T15:21:01;13.60;99.90
27741;DHT22;15134;48.768;9.184;2024-02-14T15:23:28;13.60;99.90
27741;DHT22;15134;48.768;9.184;2024-02-14T15:25:57;13.60;99.90
27741;DHT22;15134;48.768;9.184;2024-02-14T15:28:34;13.60;99.90
27741;DHT22;15134;48.768;9.184;2024-02-14T15:31:08;13.70;99.90
27741;DHT22;15134;48.768;9.184;2024-02-14T15:34:13;13.70;99.90
27741;DHT22;15134;48.768;9.184;2024-02-14T15:36:38;13.70;99.90